createdAt,value
2018-10-09T00:00:14.537Z,75.31
2018-10-09T00:01:14.486Z,75.70
2018-10-09T00:02:14.432Z,75.79
2018-10-09T00:03:14.386Z,75.50
2018-10-09T00:04:14.330Z,75.50
2018-10-09T00:05:14.283Z,75.50
2018-10-09T00:06:14.228Z,75.50
2018-10-09T00:07:14.178Z,75.31
2018-10-09T00:08:14.125Z,75.50
2018-10-09T00:09:14.075Z,75.50
2018-10-09T00:10:14.022Z,75.12
2018-10-09T00:11:13.969Z,75.12
2018-10-09T00:12:13.918Z,75.31
2018-10-09T00:13:13.868Z,75.21
2018-10-09T00:14:13.818Z,75.31
2018-10-09T00:15:13.765Z,75.40
2018-10-09T00:16:13.715Z,75.21
2018-10-09T00:17:13.662Z,75.31
2018-10-09T00:18:13.610Z,75.50
2018-10-09T00:19:13.559Z,75.60
2018-10-09T00:20:13.509Z,75.50
2018-10-09T00:21:13.459Z,75.79
2018-10-09T00:22:13.405Z,75.89
2018-10-09T00:23:13.355Z,75.50
2018-10-09T00:24:13.302Z,75.98
2018-10-09T00:25:13.250Z,75.31
2018-10-09T00:26:13.260Z,75.21
2018-10-09T00:27:13.148Z,75.12
2018-10-09T00:28:13.099Z,74.64
2018-10-09T00:29:13.045Z,74.64
2018-10-09T00:30:12.993Z,75.12
2018-10-09T00:31:12.942Z,74.64
2018-10-09T00:32:12.891Z,74.73
2018-10-09T00:33:12.840Z,75.02
2018-10-09T00:34:12.787Z,74.93
2018-10-09T00:35:12.736Z,75.02
2018-10-09T00:36:12.687Z,75.31
2018-10-09T00:37:12.634Z,74.44
2018-10-09T00:38:12.585Z,74.54
2018-10-09T00:39:12.531Z,74.35
2018-10-09T00:40:12.478Z,74.35
2018-10-09T00:41:12.428Z,74.54
2018-10-09T00:42:12.376Z,74.44
2018-10-09T00:43:12.324Z,74.35
2018-10-09T00:44:12.273Z,74.64
2018-10-09T00:45:12.222Z,74.44
2018-10-09T00:46:12.171Z,74.44
2018-10-09T00:47:12.119Z,74.44
2018-10-09T00:48:12.067Z,74.64
2018-10-09T00:49:12.015Z,74.64
2018-10-09T00:50:11.965Z,74.64
2018-10-09T00:51:11.913Z,74.64
2018-10-09T00:52:11.861Z,74.44
2018-10-09T00:53:11.809Z,74.54
2018-10-09T00:54:11.761Z,74.83
2018-10-09T00:55:11.708Z,74.64
2018-10-09T00:56:11.657Z,74.64
2018-10-09T00:57:11.605Z,74.73
2018-10-09T00:58:11.551Z,74.73
2018-10-09T00:59:11.499Z,74.54
2018-10-09T01:00:11.449Z,74.64
2018-10-09T01:01:11.402Z,74.54
2018-10-09T01:02:11.345Z,74.93
2018-10-09T01:03:11.294Z,75.02
2018-10-09T01:04:11.244Z,73.97
2018-10-09T01:05:11.192Z,74.16
2018-10-09T01:06:11.141Z,74.16
2018-10-09T01:07:11.090Z,74.16
2018-10-09T01:08:11.038Z,74.16
2018-10-09T01:09:11.059Z,74.26
2018-10-09T01:10:10.932Z,74.44
2018-10-09T01:11:10.882Z,73.87
2018-10-09T01:12:10.833Z,73.83
2018-10-09T01:13:10.779Z,74.06
2018-10-09T01:14:10.727Z,74.16
2018-10-09T01:15:10.676Z,74.26
2018-10-09T01:16:10.624Z,74.26
2018-10-09T01:17:10.573Z,74.26
2018-10-09T01:18:10.521Z,74.12
2018-10-09T01:19:10.468Z,74.22
2018-10-09T01:20:10.417Z,74.22
2018-10-09T01:21:10.366Z,74.22
2018-10-09T01:22:10.317Z,74.41
2018-10-09T01:23:10.262Z,73.93
2018-10-09T01:24:10.209Z,74.12
2018-10-09T01:25:10.159Z,74.12
2018-10-09T01:26:10.107Z,74.02
2018-10-09T01:27:10.057Z,74.12
2018-10-09T01:28:10.004Z,73.97
2018-10-09T01:29:09.953Z,74.12
2018-10-09T01:30:09.901Z,73.68
2018-10-09T01:31:09.848Z,73.93
2018-10-09T01:32:09.797Z,73.83
2018-10-09T01:33:09.747Z,73.83
2018-10-09T01:34:09.697Z,73.45
2018-10-09T01:35:09.645Z,73.45
2018-10-09T01:36:09.592Z,73.26
2018-10-09T01:37:09.540Z,73.16
2018-10-09T01:38:09.487Z,73.74
2018-10-09T01:39:09.440Z,73.45
2018-10-09T01:40:09.384Z,73.35
2018-10-09T01:41:09.333Z,73.35
2018-10-09T01:42:09.280Z,73.35
2018-10-09T01:43:09.231Z,72.97
2018-10-09T01:44:09.178Z,72.78
2018-10-09T01:45:09.127Z,73.16
2018-10-09T01:46:09.075Z,72.88
2018-10-09T01:47:09.023Z,72.97
2018-10-09T01:48:08.970Z,73.16
2018-10-09T01:49:08.923Z,73.16
2018-10-09T01:50:08.870Z,73.35
2018-10-09T01:51:08.820Z,72.97
2018-10-09T01:52:08.766Z,73.07
2018-10-09T01:53:08.716Z,72.97
2018-10-09T01:54:08.664Z,73.26
2018-10-09T01:55:08.611Z,73.26
2018-10-09T01:56:08.558Z,72.97
2018-10-09T01:57:08.506Z,72.97
2018-10-09T01:58:08.456Z,73.16
2018-10-09T01:59:08.402Z,73.26
2018-10-09T02:00:08.351Z,73.16
2018-10-09T02:01:08.300Z,72.97
2018-10-09T02:02:08.245Z,73.07
2018-10-09T02:03:08.196Z,73.35
2018-10-09T02:04:08.146Z,73.35
2018-10-09T02:05:08.093Z,73.16
2018-10-09T02:06:08.040Z,73.45
2018-10-09T02:07:07.987Z,73.16
2018-10-09T02:08:07.936Z,72.68
2018-10-09T02:09:07.889Z,72.88
2018-10-09T02:10:07.836Z,73.55
2018-10-09T02:11:07.782Z,72.88
2018-10-09T02:12:07.731Z,73.07
2018-10-09T02:13:07.678Z,73.35
2018-10-09T02:14:07.626Z,73.16
2018-10-09T02:15:07.576Z,73.07
2018-10-09T02:16:07.522Z,73.35
2018-10-09T02:17:07.473Z,73.07
2018-10-09T02:18:07.418Z,72.88
2018-10-09T02:19:07.368Z,73.16
2018-10-09T02:20:07.316Z,72.78
2018-10-09T02:21:07.263Z,73.07
2018-10-09T02:22:07.211Z,73.55
2018-10-09T02:23:07.160Z,73.35
2018-10-09T02:24:07.107Z,72.97
2018-10-09T02:25:07.056Z,72.88
2018-10-09T02:26:07.006Z,72.78
2018-10-09T02:27:06.952Z,72.88
2018-10-09T02:28:06.902Z,72.78
2018-10-09T02:29:06.850Z,72.88
2018-10-09T02:30:06.796Z,72.68
2018-10-09T02:31:06.745Z,72.97
2018-10-09T02:32:06.694Z,72.88
2018-10-09T02:33:06.646Z,73.07
2018-10-09T02:34:06.589Z,72.97
2018-10-09T02:35:06.538Z,72.97
2018-10-09T02:36:06.487Z,72.97
2018-10-09T02:37:06.435Z,72.88
2018-10-09T02:38:06.383Z,72.59
2018-10-09T02:39:06.332Z,72.78
2018-10-09T02:40:06.278Z,72.49
2018-10-09T02:41:06.227Z,72.78
2018-10-09T02:42:06.177Z,72.49
2018-10-09T02:43:06.123Z,72.49
2018-10-09T02:44:06.073Z,72.88
2018-10-09T02:45:06.019Z,72.78
2018-10-09T02:46:05.970Z,72.59
2018-10-09T02:47:05.921Z,72.49
2018-10-09T02:48:05.863Z,72.20
2018-10-09T02:49:05.812Z,72.97
2018-10-09T02:50:05.759Z,72.49
2018-10-09T02:51:05.708Z,72.84
2018-10-09T02:52:05.659Z,72.68
2018-10-09T02:53:05.608Z,72.64
2018-10-09T02:54:05.553Z,72.74
2018-10-09T02:55:05.501Z,72.30
2018-10-09T02:56:05.448Z,72.59
2018-10-09T02:57:05.397Z,72.94
2018-10-09T02:58:05.358Z,72.94
2018-10-09T02:59:05.292Z,72.36
2018-10-09T03:00:05.243Z,72.74
2018-10-09T03:01:05.189Z,72.78
2018-10-09T03:02:05.135Z,72.78
2018-10-09T03:03:05.085Z,72.55
2018-10-09T03:04:05.032Z,72.78
2018-10-09T03:05:04.987Z,72.78
2018-10-09T03:06:04.929Z,72.64
2018-10-09T03:07:04.876Z,72.55
2018-10-09T03:08:04.869Z,72.78
2018-10-09T03:09:04.776Z,72.88
2018-10-09T03:10:04.721Z,72.59
2018-10-09T03:11:04.672Z,72.84
2018-10-09T03:12:04.620Z,72.64
2018-10-09T03:13:04.566Z,72.36
2018-10-09T03:14:04.513Z,72.45
2018-10-09T03:15:04.461Z,72.27
2018-10-09T03:16:04.413Z,72.64
2018-10-09T03:17:04.364Z,72.27
2018-10-09T03:18:04.305Z,72.36
2018-10-09T03:19:04.254Z,72.36
2018-10-09T03:20:04.205Z,72.27
2018-10-09T03:21:04.150Z,72.88
2018-10-09T03:22:04.097Z,72.36
2018-10-09T03:23:04.046Z,72.45
2018-10-09T03:24:03.995Z,72.45
2018-10-09T03:25:03.943Z,72.55
2018-10-09T03:26:03.890Z,72.36
2018-10-09T03:27:03.836Z,72.94
2018-10-09T03:28:03.785Z,72.74
2018-10-09T03:29:03.733Z,72.84
2018-10-09T03:30:03.681Z,72.74
2018-10-09T03:31:03.632Z,72.64
2018-10-09T03:32:03.578Z,72.64
2018-10-09T03:33:03.526Z,72.74
2018-10-09T03:34:03.475Z,72.94
2018-10-09T03:35:03.423Z,72.55
2018-10-09T03:36:03.369Z,72.64
2018-10-09T03:37:03.318Z,72.64
2018-10-09T03:38:03.269Z,72.74
2018-10-09T03:39:03.215Z,72.55
2018-10-09T03:40:03.164Z,72.84
2018-10-09T03:41:03.110Z,72.74
2018-10-09T03:42:03.058Z,72.64
2018-10-09T03:43:03.007Z,72.64
2018-10-09T03:44:02.954Z,72.55
2018-10-09T03:45:02.902Z,72.17
2018-10-09T03:46:02.849Z,72.64
2018-10-09T03:47:02.800Z,72.27
2018-10-09T03:48:02.745Z,72.36
2018-10-09T03:49:02.694Z,72.36
2018-10-09T03:50:02.643Z,71.78
2018-10-09T03:51:02.592Z,72.84
2018-10-09T03:52:02.537Z,72.74
2018-10-09T03:53:02.485Z,72.64
2018-10-09T03:54:02.432Z,72.74
2018-10-09T03:55:02.386Z,72.27
2018-10-09T03:56:02.333Z,72.74
2018-10-09T03:57:02.285Z,72.45
2018-10-09T03:58:02.226Z,72.27
2018-10-09T03:59:02.173Z,71.98
2018-10-09T04:00:02.126Z,72.36
2018-10-09T04:01:02.068Z,72.74
2018-10-09T04:02:02.017Z,72.07
2018-10-09T04:03:01.963Z,72.36
2018-10-09T04:04:01.915Z,72.07
2018-10-09T04:05:01.877Z,71.98
2018-10-09T04:06:01.809Z,72.17
2018-10-09T04:07:01.755Z,72.36
2018-10-09T04:08:01.704Z,72.07
2018-10-09T04:09:01.730Z,71.98
2018-10-09T04:10:01.605Z,71.98
2018-10-09T04:11:01.547Z,71.88
2018-10-09T04:12:01.499Z,71.88
2018-10-09T04:13:01.445Z,72.07
2018-10-09T04:14:01.390Z,72.07
2018-10-09T04:15:01.340Z,71.88
2018-10-09T04:16:01.287Z,71.88
2018-10-09T04:17:01.236Z,71.88
2018-10-09T04:18:01.181Z,71.88
2018-10-09T04:19:01.131Z,72.07
2018-10-09T04:20:01.081Z,71.88
2018-10-09T04:21:01.027Z,72.17
2018-10-09T04:22:00.974Z,71.88
2018-10-09T04:23:00.922Z,71.69
2018-10-09T04:24:00.870Z,71.88
2018-10-09T04:25:00.818Z,71.98
2018-10-09T04:26:00.768Z,71.59
2018-10-09T04:27:00.713Z,71.69
2018-10-09T04:28:00.661Z,71.88
2018-10-09T04:29:00.612Z,71.69
2018-10-09T04:30:00.559Z,72.17
2018-10-09T04:31:00.508Z,71.88
2018-10-09T04:32:00.456Z,71.98
2018-10-09T04:33:00.401Z,71.50
2018-10-09T04:34:00.348Z,71.88
2018-10-09T04:35:00.295Z,71.69
2018-10-09T04:36:00.243Z,71.98
2018-10-09T04:37:00.199Z,71.78
2018-10-09T04:38:00.140Z,72.07
2018-10-09T04:39:00.090Z,72.17
2018-10-09T04:40:00.038Z,71.69
2018-10-09T04:40:59.983Z,71.98
2018-10-09T04:41:59.937Z,71.98
2018-10-09T04:42:59.879Z,71.98
2018-10-09T04:43:59.832Z,71.88
2018-10-09T04:44:59.774Z,71.98
2018-10-09T04:45:59.722Z,71.98
2018-10-09T04:46:59.669Z,72.17
2018-10-09T04:47:59.618Z,72.07
2018-10-09T04:48:59.567Z,72.36
2018-10-09T04:49:59.512Z,72.17
2018-10-09T04:50:59.460Z,72.27
2018-10-09T04:51:59.408Z,72.17
2018-10-09T04:52:59.405Z,71.88
2018-10-09T04:53:59.306Z,72.07
2018-10-09T04:54:59.253Z,71.78
2018-10-09T04:55:59.202Z,71.78
2018-10-09T04:56:59.147Z,71.78
2018-10-09T04:57:59.095Z,71.78
2018-10-09T04:58:59.048Z,71.69
2018-10-09T04:59:58.995Z,71.78
2018-10-09T05:00:58.940Z,72.03
2018-10-09T05:01:58.886Z,72.07
2018-10-09T05:02:58.835Z,72.17
2018-10-09T05:03:58.783Z,72.03
2018-10-09T05:04:58.729Z,72.07
2018-10-09T05:05:58.681Z,72.13
2018-10-09T05:06:58.627Z,72.03
2018-10-09T05:07:58.572Z,72.13
2018-10-09T05:08:58.522Z,72.03
2018-10-09T05:09:58.470Z,72.17
2018-10-09T05:10:58.421Z,72.07
2018-10-09T05:11:58.364Z,71.94
2018-10-09T05:12:58.313Z,72.07
2018-10-09T05:13:58.261Z,71.66
2018-10-09T05:14:58.207Z,71.84
2018-10-09T05:15:58.159Z,71.66
2018-10-09T05:16:58.104Z,71.84
2018-10-09T05:17:58.055Z,71.69
2018-10-09T05:18:57.997Z,71.69
2018-10-09T05:19:57.945Z,71.88
2018-10-09T05:20:57.895Z,71.78
2018-10-09T05:21:57.842Z,72.03
2018-10-09T05:22:57.791Z,72.13
2018-10-09T05:23:57.737Z,72.03
2018-10-09T05:24:57.684Z,72.07
2018-10-09T05:25:57.631Z,71.88
2018-10-09T05:26:57.579Z,72.03
2018-10-09T05:27:57.531Z,71.98
2018-10-09T05:28:57.476Z,72.13
2018-10-09T05:29:57.424Z,72.13
2018-10-09T05:30:57.396Z,72.07
2018-10-09T05:31:57.318Z,72.13
2018-10-09T05:32:57.265Z,72.13
2018-10-09T05:33:57.215Z,72.03
2018-10-09T05:34:57.163Z,71.94
2018-10-09T05:35:57.108Z,72.32
2018-10-09T05:36:57.059Z,72.23
2018-10-09T05:37:57.008Z,72.13
2018-10-09T05:38:56.952Z,71.84
2018-10-09T05:39:56.899Z,71.84
2018-10-09T05:40:56.848Z,72.03
2018-10-09T05:41:56.804Z,71.75
2018-10-09T05:42:56.742Z,71.75
2018-10-09T05:43:56.690Z,72.23
2018-10-09T05:44:56.639Z,72.13
2018-10-09T05:45:56.584Z,71.75
2018-10-09T05:46:56.536Z,71.56
2018-10-09T05:47:56.480Z,72.32
2018-10-09T05:48:56.428Z,72.32
2018-10-09T05:49:56.377Z,72.23
2018-10-09T05:50:56.323Z,72.71
2018-10-09T05:51:56.865Z,72.71
2018-10-09T05:52:56.220Z,72.71
2018-10-09T05:53:56.167Z,72.71
2018-10-09T05:54:56.113Z,72.61
2018-10-09T05:55:56.064Z,72.52
2018-10-09T05:56:56.009Z,72.61
2018-10-09T05:57:55.976Z,72.42
2018-10-09T05:58:55.903Z,72.42
2018-10-09T05:59:55.853Z,72.61
2018-10-09T06:00:55.800Z,72.23
2018-10-09T06:01:55.747Z,72.32
2018-10-09T06:02:55.694Z,72.32
2018-10-09T06:03:55.642Z,72.52
2018-10-09T06:04:55.591Z,72.32
2018-10-09T06:05:55.657Z,72.90
2018-10-09T06:06:55.486Z,72.71
2018-10-09T06:07:55.433Z,72.52
2018-10-09T06:08:55.380Z,72.61
2018-10-09T06:09:55.328Z,72.90
2018-10-09T06:10:55.276Z,72.90
2018-10-09T06:11:55.224Z,72.71
2018-10-09T06:12:55.172Z,72.99
2018-10-09T06:13:55.118Z,72.80
2018-10-09T06:14:55.065Z,73.09
2018-10-09T06:15:55.066Z,73.28
2018-10-09T06:16:54.962Z,73.28
2018-10-09T06:17:54.908Z,73.09
2018-10-09T06:18:54.855Z,73.28
2018-10-09T06:19:54.806Z,72.99
2018-10-09T06:20:54.752Z,73.09
2018-10-09T06:21:54.699Z,72.71
2018-10-09T06:22:54.648Z,73.09
2018-10-09T06:23:54.596Z,73.19
2018-10-09T06:24:54.542Z,73.28
2018-10-09T06:25:54.490Z,73.09
2018-10-09T06:26:54.437Z,73.09
2018-10-09T06:27:54.432Z,72.90
2018-10-09T06:28:54.334Z,73.09
2018-10-09T06:29:54.279Z,73.28
2018-10-09T06:30:54.227Z,72.61
2018-10-09T06:31:54.178Z,73.47
2018-10-09T06:32:54.125Z,73.47
2018-10-09T06:33:54.121Z,73.28
2018-10-09T06:34:54.024Z,73.28
2018-10-09T06:35:53.965Z,73.09
2018-10-09T06:36:53.914Z,73.09
2018-10-09T06:37:53.860Z,72.90
2018-10-09T06:38:53.807Z,73.09
2018-10-09T06:39:53.755Z,73.09
2018-10-09T06:40:53.704Z,73.19
2018-10-09T06:41:53.649Z,72.80
2018-10-09T06:42:53.622Z,73.09
2018-10-09T06:43:53.545Z,73.19
2018-10-09T06:44:53.495Z,72.99
2018-10-09T06:45:53.442Z,73.38
2018-10-09T06:46:53.391Z,73.47
2018-10-09T06:47:53.336Z,73.47
2018-10-09T06:48:53.284Z,73.57
2018-10-09T06:49:53.230Z,73.19
2018-10-09T06:50:53.180Z,72.99
2018-10-09T06:51:53.126Z,73.66
2018-10-09T06:52:53.084Z,73.76
2018-10-09T06:53:53.145Z,73.76
2018-10-09T06:54:53.071Z,74.05
2018-10-09T06:55:52.918Z,73.95
2018-10-09T06:56:52.864Z,73.76
2018-10-09T06:57:52.811Z,74.05
2018-10-09T06:58:52.759Z,74.05
2018-10-09T06:59:52.708Z,74.15
2018-10-09T07:00:52.656Z,74.15
2018-10-09T07:01:52.601Z,74.24
2018-10-09T07:02:52.549Z,74.05
2018-10-09T07:03:52.497Z,74.15
2018-10-09T07:04:52.444Z,74.24
2018-10-09T07:05:52.391Z,74.33
2018-10-09T07:06:52.338Z,74.52
2018-10-09T07:07:52.291Z,74.05
2018-10-09T07:08:52.234Z,74.62
2018-10-09T07:09:52.182Z,74.62
2018-10-09T07:10:52.130Z,74.43
2018-10-09T07:11:52.077Z,74.62
2018-10-09T07:12:52.025Z,74.43
2018-10-09T07:13:51.971Z,74.62
2018-10-09T07:14:51.919Z,75.20
2018-10-09T07:15:51.867Z,74.82
2018-10-09T07:16:51.860Z,74.91
2018-10-09T07:17:51.761Z,74.72
2018-10-09T07:18:51.713Z,74.82
2018-10-09T07:19:51.657Z,75.01
2018-10-09T07:20:51.607Z,74.62
2018-10-09T07:21:51.551Z,74.91
2018-10-09T07:22:51.498Z,75.20
2018-10-09T07:23:51.447Z,75.01
2018-10-09T07:24:51.397Z,75.10
2018-10-09T07:25:51.343Z,75.29
2018-10-09T07:26:51.289Z,75.20
2018-10-09T07:27:51.243Z,75.20
2018-10-09T07:28:51.185Z,75.68
2018-10-09T07:29:51.132Z,75.68
2018-10-09T07:30:51.084Z,75.39
2018-10-09T07:31:51.027Z,75.01
2018-10-09T07:32:50.977Z,75.39
2018-10-09T07:33:50.921Z,74.91
2018-10-09T07:34:50.869Z,75.01
2018-10-09T07:35:50.817Z,75.39
2018-10-09T07:36:50.767Z,75.20
2018-10-09T07:37:50.711Z,75.20
2018-10-09T07:38:50.661Z,75.77
2018-10-09T07:39:50.609Z,75.68
2018-10-09T07:40:50.555Z,75.68
2018-10-09T07:41:50.503Z,75.96
2018-10-09T07:42:50.449Z,75.96
2018-10-09T07:43:50.402Z,75.87
2018-10-09T07:44:50.349Z,75.87
2018-10-09T07:45:50.293Z,75.87
2018-10-09T07:46:50.239Z,75.87
2018-10-09T07:47:50.188Z,75.77
2018-10-09T07:48:50.135Z,76.15
2018-10-09T07:49:50.082Z,75.87
2018-10-09T07:50:50.031Z,75.87
2018-10-09T07:51:49.976Z,76.06
2018-10-09T07:52:49.986Z,76.44
2018-10-09T07:53:49.873Z,76.54
2018-10-09T07:54:49.825Z,76.54
2018-10-09T07:55:49.768Z,76.35
2018-10-09T07:56:49.717Z,76.15
2018-10-09T07:57:49.662Z,76.15
2018-10-09T07:58:49.696Z,76.15
2018-10-09T07:59:49.559Z,76.25
2018-10-09T08:00:49.507Z,75.96
2018-10-09T08:01:49.452Z,76.64
2018-10-09T08:02:49.399Z,76.64
2018-10-09T08:03:49.347Z,76.64
2018-10-09T08:04:49.377Z,76.44
2018-10-09T08:05:49.242Z,76.73
2018-10-09T08:06:49.189Z,77.02
2018-10-09T08:07:49.137Z,76.92
2018-10-09T08:08:49.086Z,76.92
2018-10-09T08:09:49.032Z,76.92
2018-10-09T08:10:49.031Z,76.82
2018-10-09T08:11:48.926Z,76.64
2018-10-09T08:12:48.875Z,76.73
2018-10-09T08:13:48.822Z,76.73
2018-10-09T08:14:48.770Z,76.82
2018-10-09T08:15:48.716Z,76.73
2018-10-09T08:16:48.666Z,76.64
2018-10-09T08:17:48.610Z,76.92
2018-10-09T08:18:48.560Z,76.73
2018-10-09T08:19:48.507Z,76.92
2018-10-09T08:20:48.457Z,76.82
2018-10-09T08:21:48.401Z,77.02
2018-10-09T08:22:48.377Z,77.02
2018-10-09T08:23:48.296Z,77.02
2018-10-09T08:24:48.245Z,76.73
2018-10-09T08:25:48.192Z,76.92
2018-10-09T08:26:48.140Z,76.82
2018-10-09T08:27:48.086Z,76.73
2018-10-09T08:28:48.035Z,77.06
2018-10-09T08:29:47.982Z,77.11
2018-10-09T08:30:47.928Z,76.77
2018-10-09T08:31:47.885Z,76.96
2018-10-09T08:32:47.826Z,76.67
2018-10-09T08:33:47.794Z,77.06
2018-10-09T08:34:47.719Z,76.96
2018-10-09T08:35:47.670Z,76.64
2018-10-09T08:36:47.615Z,76.77
2018-10-09T08:37:47.561Z,77.02
2018-10-09T08:38:47.508Z,77.02
2018-10-09T08:39:47.461Z,77.15
2018-10-09T08:40:47.407Z,77.63
2018-10-09T08:41:47.352Z,77.53
2018-10-09T08:42:47.298Z,77.63
2018-10-09T08:43:47.254Z,77.97
2018-10-09T08:44:47.195Z,77.92
2018-10-09T08:45:47.140Z,77.88
2018-10-09T08:46:47.090Z,77.97
2018-10-09T08:47:47.036Z,77.82
2018-10-09T08:48:46.988Z,78.02
2018-10-09T08:49:46.931Z,77.82
2018-10-09T08:50:46.879Z,77.92
2018-10-09T08:51:46.834Z,77.82
2018-10-09T08:52:46.776Z,78.02
2018-10-09T08:53:46.720Z,77.92
2018-10-09T08:54:46.668Z,77.82
2018-10-09T08:55:46.616Z,78.30
2018-10-09T08:56:46.564Z,78.40
2018-10-09T08:57:46.518Z,78.49
2018-10-09T08:58:46.463Z,78.40
2018-10-09T08:59:46.409Z,78.20
2018-10-09T09:00:46.355Z,78.11
2018-10-09T09:01:46.317Z,77.92
2018-10-09T09:02:46.248Z,78.20
2018-10-09T09:03:46.200Z,78.69
2018-10-09T09:04:46.145Z,78.40
2018-10-09T09:05:46.101Z,77.82
2018-10-09T09:06:46.045Z,78.49
2018-10-09T09:07:45.987Z,78.40
2018-10-09T09:08:45.936Z,78.11
2018-10-09T09:09:45.993Z,78.02
2018-10-09T09:10:45.829Z,77.82
2018-10-09T09:11:45.777Z,77.82
2018-10-09T09:12:45.726Z,77.63
2018-10-09T09:13:45.673Z,77.63
2018-10-09T09:14:45.622Z,78.11
2018-10-09T09:15:45.572Z,77.82
2018-10-09T09:16:45.515Z,78.11
2018-10-09T09:17:45.462Z,78.69
2018-10-09T09:18:45.410Z,78.11
2018-10-09T09:19:45.358Z,78.02
2018-10-09T09:20:45.417Z,78.59
2018-10-09T09:21:45.259Z,78.59
2018-10-09T09:22:45.201Z,79.07
2018-10-09T09:23:45.149Z,78.49
2018-10-09T09:24:45.096Z,78.88
2018-10-09T09:25:45.043Z,79.07
2018-10-09T09:26:45.181Z,78.59
2018-10-09T09:27:45.026Z,78.78
2018-10-09T09:28:44.886Z,78.40
2018-10-09T09:29:44.832Z,78.20
2018-10-09T09:30:44.781Z,77.82
2018-10-09T09:31:44.728Z,77.63
2018-10-09T09:32:44.675Z,77.63
2018-10-09T09:33:44.622Z,78.30
2018-10-09T09:34:44.570Z,78.40
2018-10-09T09:35:44.519Z,78.49
2018-10-09T09:36:44.466Z,78.02
2018-10-09T09:37:44.414Z,78.20
2018-10-09T09:38:44.360Z,78.02
2018-10-09T09:39:44.315Z,78.40
2018-10-09T09:40:44.259Z,77.63
2018-10-09T09:41:44.203Z,77.92
2018-10-09T09:42:44.150Z,77.92
2018-10-09T09:43:44.103Z,77.82
2018-10-09T09:44:44.048Z,77.92
2018-10-09T09:45:44.050Z,78.02
2018-10-09T09:46:43.944Z,77.63
2018-10-09T09:47:43.891Z,77.92
2018-10-09T09:48:43.838Z,77.92
2018-10-09T09:49:43.784Z,77.92
2018-10-09T09:50:43.735Z,77.92
2018-10-09T09:51:43.679Z,78.02
2018-10-09T09:52:43.628Z,78.40
2018-10-09T09:53:43.575Z,78.11
2018-10-09T09:54:43.521Z,78.49
2018-10-09T09:55:43.471Z,78.59
2018-10-09T09:56:43.417Z,78.11
2018-10-09T09:57:43.374Z,78.49
2018-10-09T09:58:43.539Z,78.02
2018-10-09T09:59:43.263Z,78.11
2018-10-09T10:00:43.209Z,78.69
2018-10-09T10:01:43.156Z,79.07
2018-10-09T10:02:43.102Z,78.78
2018-10-09T10:03:43.158Z,78.20
2018-10-09T10:04:43.006Z,78.11
2018-10-09T10:05:42.945Z,78.88
2018-10-09T10:06:42.895Z,78.59
2018-10-09T10:07:42.844Z,79.07
2018-10-09T10:08:42.789Z,78.69
2018-10-09T10:09:42.736Z,79.07
2018-10-09T10:10:42.685Z,78.59
2018-10-09T10:11:42.633Z,78.88
2018-10-09T10:12:42.579Z,78.30
2018-10-09T10:13:42.527Z,78.63
2018-10-09T10:14:42.475Z,78.82
2018-10-09T10:15:42.481Z,78.40
2018-10-09T10:16:42.369Z,78.88
2018-10-09T10:17:42.318Z,78.72
2018-10-09T10:18:42.268Z,78.88
2018-10-09T10:19:42.214Z,78.92
2018-10-09T10:20:42.165Z,78.72
2018-10-09T10:21:42.111Z,78.82
2018-10-09T10:22:42.058Z,78.82
2018-10-09T10:23:42.006Z,78.72
2018-10-09T10:24:41.951Z,78.63
2018-10-09T10:25:42.431Z,78.63
2018-10-09T10:26:41.846Z,78.82
2018-10-09T10:27:41.795Z,78.72
2018-10-09T10:28:41.742Z,78.82
2018-10-09T10:29:41.690Z,78.82
2018-10-09T10:30:41.642Z,79.39
2018-10-09T10:31:41.586Z,79.39
2018-10-09T10:32:41.535Z,78.82
2018-10-09T10:33:41.485Z,79.11
2018-10-09T10:34:41.428Z,79.21
2018-10-09T10:35:41.417Z,78.82
2018-10-09T10:36:41.394Z,78.72
2018-10-09T10:37:41.274Z,78.72
2018-10-09T10:38:41.224Z,79.01
2018-10-09T10:39:41.171Z,78.92
2018-10-09T10:40:41.116Z,79.01
2018-10-09T10:41:41.064Z,78.92
2018-10-09T10:42:41.024Z,78.72
2018-10-09T10:43:40.959Z,78.92
2018-10-09T10:44:40.908Z,78.92
2018-10-09T10:45:40.855Z,79.01
2018-10-09T10:46:40.801Z,79.01
2018-10-09T10:47:40.748Z,79.11
2018-10-09T10:48:40.697Z,78.72
2018-10-09T10:49:40.648Z,79.21
2018-10-09T10:50:40.595Z,79.30
2018-10-09T10:51:40.541Z,79.39
2018-10-09T10:52:40.489Z,79.30
2018-10-09T10:53:40.439Z,79.21
2018-10-09T10:54:40.384Z,79.68
2018-10-09T10:55:40.333Z,79.39
2018-10-09T10:56:40.280Z,79.21
2018-10-09T10:57:40.228Z,79.21
2018-10-09T10:58:40.175Z,79.21
2018-10-09T10:59:40.129Z,79.21
2018-10-09T11:00:40.073Z,79.21
2018-10-09T11:01:40.066Z,79.49
2018-10-09T11:02:39.966Z,79.21
2018-10-09T11:03:39.915Z,79.11
2018-10-09T11:04:39.864Z,79.59
2018-10-09T11:05:39.810Z,78.72
2018-10-09T11:06:39.757Z,79.49
2018-10-09T11:07:39.708Z,79.63
2018-10-09T11:08:39.654Z,79.59
2018-10-09T11:09:39.601Z,79.39
2018-10-09T11:10:39.554Z,79.30
2018-10-09T11:11:39.498Z,79.30
2018-10-09T11:12:39.446Z,78.92
2018-10-09T11:13:39.392Z,79.21
2018-10-09T11:14:39.409Z,79.44
2018-10-09T11:15:39.289Z,79.49
2018-10-09T11:16:39.237Z,79.01
2018-10-09T11:17:39.185Z,79.78
2018-10-09T11:18:39.132Z,79.53
2018-10-09T11:19:39.082Z,79.24
2018-10-09T11:20:39.031Z,78.96
2018-10-09T11:21:39.101Z,78.96
2018-10-09T11:22:38.942Z,79.05
2018-10-09T11:23:38.872Z,78.96
2018-10-09T11:24:38.820Z,79.24
2018-10-09T11:25:38.767Z,79.24
2018-10-09T11:26:38.716Z,79.24
2018-10-09T11:27:38.665Z,79.44
2018-10-09T11:28:38.633Z,79.24
2018-10-09T11:29:38.559Z,79.05
2018-10-09T11:30:38.508Z,79.44
2018-10-09T11:31:38.456Z,79.44
2018-10-09T11:32:38.459Z,79.34
2018-10-09T11:33:38.352Z,79.24
2018-10-09T11:34:38.303Z,79.44
2018-10-09T11:35:38.250Z,79.24
2018-10-09T11:36:38.198Z,79.24
2018-10-09T11:37:38.144Z,79.63
2018-10-09T11:38:38.092Z,79.44
2018-10-09T11:39:38.046Z,78.86
2018-10-09T11:40:37.988Z,78.96
2018-10-09T11:41:37.935Z,79.34
2018-10-09T11:42:37.946Z,79.24
2018-10-09T11:43:37.836Z,79.34
2018-10-09T11:44:37.780Z,79.24
2018-10-09T11:45:37.726Z,79.44
2018-10-09T11:46:37.680Z,79.53
2018-10-09T11:47:37.626Z,79.53
2018-10-09T11:48:37.573Z,79.24
2018-10-09T11:49:37.520Z,79.82
2018-10-09T11:50:37.467Z,79.53
2018-10-09T11:51:37.415Z,79.24
2018-10-09T11:52:37.363Z,79.44
2018-10-09T11:53:37.311Z,79.63
2018-10-09T11:54:37.260Z,79.82
2018-10-09T11:55:37.212Z,79.05
2018-10-09T11:56:37.157Z,79.14
2018-10-09T11:57:37.105Z,79.44
2018-10-09T11:58:37.083Z,79.53
2018-10-09T11:59:37.001Z,79.44
2018-10-09T12:00:36.949Z,79.53
2018-10-09T12:01:36.896Z,78.77
2018-10-09T12:02:36.885Z,79.53
2018-10-09T12:03:36.792Z,79.63
2018-10-09T12:04:36.742Z,79.53
2018-10-09T12:05:36.704Z,79.63
2018-10-09T12:06:36.642Z,78.96
2018-10-09T12:07:36.585Z,79.24
2018-10-09T12:08:36.535Z,79.63
2018-10-09T12:09:36.480Z,79.44
2018-10-09T12:10:36.428Z,79.47
2018-10-09T12:11:36.381Z,79.05
2018-10-09T12:12:36.327Z,78.77
2018-10-09T12:13:36.273Z,79.44
2018-10-09T12:14:36.221Z,78.77
2018-10-09T12:15:36.195Z,78.96
2018-10-09T12:16:36.119Z,79.24
2018-10-09T12:17:36.067Z,79.53
2018-10-09T12:18:36.013Z,78.86
2018-10-09T12:19:35.962Z,78.90
2018-10-09T12:20:35.911Z,79.57
2018-10-09T12:21:35.963Z,79.44
2018-10-09T12:22:35.814Z,79.57
2018-10-09T12:23:35.755Z,79.53
2018-10-09T12:24:35.704Z,79.34
2018-10-09T12:25:35.651Z,79.53
2018-10-09T12:26:35.602Z,79.57
2018-10-09T12:27:35.549Z,79.53
2018-10-09T12:28:35.497Z,79.24
2018-10-09T12:29:35.445Z,79.19
2018-10-09T12:30:35.395Z,79.34
2018-10-09T12:31:35.340Z,79.53
2018-10-09T12:32:35.290Z,79.44
2018-10-09T12:33:35.240Z,79.53
2018-10-09T12:34:35.186Z,79.63
2018-10-09T12:35:35.134Z,79.28
2018-10-09T12:36:35.084Z,79.24
2018-10-09T12:37:35.030Z,79.86
2018-10-09T12:38:34.981Z,79.76
2018-10-09T12:39:34.927Z,79.34
2018-10-09T12:40:34.878Z,79.96
2018-10-09T12:41:34.823Z,79.57
2018-10-09T12:42:34.775Z,79.67
2018-10-09T12:43:34.719Z,79.67
2018-10-09T12:44:34.668Z,79.57
2018-10-09T12:45:34.620Z,78.99
2018-10-09T12:46:34.565Z,79.86
2018-10-09T12:47:34.520Z,79.67
2018-10-09T12:48:34.463Z,79.57
2018-10-09T12:49:34.409Z,79.76
2018-10-09T12:50:34.358Z,79.38
2018-10-09T12:51:34.308Z,79.57